createdAt,value
2018-09-09T00:02:02.672Z,96099.45
2018-09-09T00:04:37.512Z,96094.53
2018-09-09T00:07:12.208Z,96103.58
2018-09-09T00:09:47.539Z,96101.77
2018-09-09T00:12:22.885Z,96098.77
2018-09-09T00:14:57.199Z,96105.30
2018-09-09T00:17:31.684Z,96103.61
2018-09-09T00:20:06.568Z,96097.34
2018-09-09T00:22:41.209Z,96107.17
2018-09-09T00:25:16.219Z,96102.21
2018-09-09T00:27:50.704Z,96104.89
2018-09-09T00:30:25.108Z,96111.36
2018-09-09T00:32:59.392Z,96105.05
2018-09-09T00:35:33.677Z,96105.62
2018-09-09T00:38:08.207Z,96107.30
2018-09-09T00:40:43.025Z,96108.91
2018-09-09T00:43:17.844Z,96110.53
2018-09-09T00:45:53.144Z,96111.40
2018-09-09T00:48:27.812Z,96108.69
2018-09-09T00:51:08.025Z,96102.91
2018-09-09T00:53:43.264Z,96109.66
2018-09-09T00:56:17.712Z,96106.11
2018-09-09T00:58:52.611Z,96110.20
2018-09-09T01:01:27.467Z,96107.91
2018-09-09T01:04:02.068Z,96108.96
2018-09-09T01:06:36.568Z,96112.25
2018-09-09T01:09:12.040Z,96115.88
2018-09-09T01:11:46.943Z,96115.27
2018-09-09T01:14:21.556Z,96118.73
2018-09-09T01:16:56.053Z,96119.78
2018-09-09T01:19:30.467Z,96122.58
2018-09-09T01:22:05.029Z,96119.97
2018-09-09T01:24:39.781Z,96117.06
2018-09-09T01:27:14.244Z,96116.88
2018-09-09T01:29:48.971Z,96120.35
2018-09-09T01:32:23.896Z,96121.22
2018-09-09T01:34:58.300Z,96113.39
2018-09-09T01:37:32.783Z,96118.11
2018-09-09T01:40:07.420Z,96114.56
2018-09-09T01:42:41.896Z,96111.02
2018-09-09T01:45:16.178Z,96109.37
2018-09-09T01:47:50.955Z,96111.17
2018-09-09T01:50:25.724Z,96110.20
2018-09-09T01:53:00.841Z,96109.71
2018-09-09T01:55:35.220Z,96113.46
2018-09-09T01:58:09.740Z,96112.21
2018-09-09T02:00:44.376Z,96114.02
2018-09-09T02:03:19.539Z,96110.34
2018-09-09T02:05:54.168Z,96111.41
2018-09-09T02:08:28.563Z,96109.66
2018-09-09T02:11:03.156Z,96108.48
2018-09-09T02:13:37.628Z,96106.69
2018-09-09T02:16:12.084Z,96108.05
2018-09-09T02:18:47.156Z,96110.02
2018-09-09T02:21:21.663Z,96112.81
2018-09-09T02:23:56.500Z,96108.74
2018-09-09T02:26:30.913Z,96109.55
2018-09-09T02:29:05.995Z,96111.17
2018-09-09T02:31:40.384Z,96120.30
2018-09-09T02:34:14.673Z,96116.18
2018-09-09T02:36:49.283Z,96117.56
2018-09-09T02:39:23.940Z,96120.09
2018-09-09T02:41:58.376Z,96122.91
2018-09-09T02:44:32.819Z,96120.97
2018-09-09T02:47:07.111Z,96118.55
2018-09-09T02:49:41.415Z,96120.71
2018-09-09T02:52:16.155Z,96115.86
2018-09-09T02:54:50.524Z,96119.91
2018-09-09T02:57:25.156Z,96115.63
2018-09-09T03:00:00.144Z,96112.44
2018-09-09T03:02:34.567Z,96115.05
2018-09-09T03:05:09.019Z,96112.83
2018-09-09T03:07:43.456Z,96116.92
2018-09-09T03:10:18.041Z,96118.09
2018-09-09T03:12:52.420Z,96125.55
2018-09-09T03:15:26.838Z,96128.84
2018-09-09T03:18:01.513Z,96128.39
2018-09-09T03:20:36.129Z,96127.84
2018-09-09T03:23:10.591Z,96127.22
2018-09-09T03:25:44.907Z,96123.98
2018-09-09T03:28:19.365Z,96119.08
2018-09-09T03:30:54.691Z,96123.98
2018-09-09T03:33:29.095Z,96120.61
2018-09-09T03:36:03.455Z,96118.14
2018-09-09T03:38:38.009Z,96117.51
2018-09-09T03:41:12.776Z,96120.94
2018-09-09T03:43:47.415Z,96122.56
2018-09-09T03:46:21.943Z,96121.94
2018-09-09T03:48:56.367Z,96122.41
2018-09-09T03:51:30.691Z,96117.69
2018-09-09T03:54:05.475Z,96123.59
2018-09-09T03:56:39.842Z,96125.75
2018-09-09T03:59:14.222Z,96130.30
2018-09-09T04:01:48.667Z,96123.84
2018-09-09T04:04:22.967Z,96121.23
2018-09-09T04:06:57.308Z,96129.42
2018-09-09T04:09:31.573Z,96131.57
2018-09-09T04:12:05.886Z,96128.52
2018-09-09T04:14:40.748Z,96134.22
2018-09-09T04:17:15.184Z,96134.23
2018-09-09T04:19:49.616Z,96138.00
2018-09-09T04:22:24.284Z,96138.98
2018-09-09T04:24:58.772Z,96133.78
2018-09-09T04:27:33.227Z,96134.59
2018-09-09T04:30:07.718Z,96134.91
2018-09-09T04:32:42.535Z,96143.39
2018-09-09T04:35:17.225Z,96148.28
2018-09-09T04:37:51.692Z,96146.21
2018-09-09T04:40:26.012Z,96150.93
2018-09-09T04:43:00.863Z,96151.20
2018-09-09T04:45:35.995Z,96146.53
2018-09-09T04:48:10.283Z,96154.84
2018-09-09T04:50:44.707Z,96151.92
2018-09-09T04:53:19.279Z,96157.94
2018-09-09T04:55:53.964Z,96160.23
2018-09-09T04:58:28.403Z,96160.86
2018-09-09T05:01:03.091Z,96167.23
2018-09-09T05:03:37.526Z,96167.23
2018-09-09T05:06:12.624Z,96172.63
2018-09-09T05:08:46.911Z,96172.30
2018-09-09T05:11:21.612Z,96174.42
2018-09-09T05:13:56.328Z,96179.95
2018-09-09T05:16:30.825Z,96186.11
2018-09-09T05:19:05.748Z,96190.02
2018-09-09T05:21:40.489Z,96197.16
2018-09-09T05:24:15.284Z,96199.06
2018-09-09T05:26:49.872Z,96197.72
2018-09-09T05:29:24.260Z,96196.91
2018-09-09T05:31:59.511Z,96191.16
2018-09-09T05:34:33.901Z,96202.84
2018-09-09T05:37:08.428Z,96198.27
2018-09-09T05:39:43.935Z,96204.77
2018-09-09T05:42:18.807Z,96196.22
2018-09-09T05:44:53.500Z,96199.28
2018-09-09T05:47:27.865Z,96205.72
2018-09-09T05:50:02.679Z,96202.73
2018-09-09T05:52:37.111Z,96205.12
2018-09-09T05:55:11.718Z,96203.44
2018-09-09T05:57:46.833Z,96208.74
2018-09-09T06:00:22.068Z,96203.30
2018-09-09T06:02:56.508Z,96201.61
2018-09-09T06:05:31.791Z,96198.95
2018-09-09T06:08:06.545Z,96202.61
2018-09-09T06:10:41.391Z,96208.70
2018-09-09T06:13:16.041Z,96210.15
2018-09-09T06:15:50.710Z,96200.06
2018-09-09T06:18:31.849Z,96196.99
2018-09-09T06:21:09.620Z,96198.98
2018-09-09T06:23:44.296Z,96199.77
2018-09-09T06:26:18.872Z,96193.41
2018-09-09T06:28:53.421Z,96190.55
2018-09-09T06:31:27.790Z,96183.72
2018-09-09T06:34:02.208Z,96184.34
2018-09-09T06:36:36.916Z,96185.16
2018-09-09T06:39:12.324Z,96178.03
2018-09-09T06:41:47.039Z,96178.30
2018-09-09T06:44:21.556Z,96172.16
2018-09-09T06:46:56.201Z,96166.93
2018-09-09T06:49:30.997Z,96169.72
2018-09-09T06:52:06.153Z,96173.19
2018-09-09T06:54:40.549Z,96177.08
2018-09-09T06:57:15.093Z,96175.73
2018-09-09T06:59:49.875Z,96175.24
2018-09-09T07:02:24.482Z,96178.62
2018-09-09T07:04:59.332Z,96179.78
2018-09-09T07:07:34.080Z,96180.44
2018-09-09T07:10:08.575Z,96180.34
2018-09-09T07:12:43.405Z,96187.53
2018-09-09T07:15:17.813Z,96182.87
2018-09-09T07:17:52.199Z,96185.90
2018-09-09T07:20:27.136Z,96190.15
2018-09-09T07:23:01.645Z,96192.78
2018-09-09T07:25:36.036Z,96200.95
2018-09-09T07:28:10.352Z,96203.58
2018-09-09T07:30:44.846Z,96199.51
2018-09-09T07:33:19.295Z,96202.14
2018-09-09T07:35:53.802Z,96202.72
2018-09-09T07:38:28.236Z,96201.45
2018-09-09T07:41:02.603Z,96200.61
2018-09-09T07:43:37.060Z,96207.60
2018-09-09T07:46:11.456Z,96212.77
2018-09-09T07:48:45.909Z,96209.08
2018-09-09T07:51:20.549Z,96208.77
2018-09-09T07:53:54.957Z,96212.74
2018-09-09T07:56:29.464Z,96217.22
2018-09-09T07:59:03.915Z,96220.58
2018-09-09T08:01:38.332Z,96221.25
2018-09-09T08:04:12.856Z,96218.82
2018-09-09T08:06:47.260Z,96218.88
2018-09-09T08:09:22.472Z,96219.51
2018-09-09T08:11:56.981Z,96225.81
2018-09-09T08:14:31.987Z,96215.14
2018-09-09T08:17:06.713Z,96220.87
2018-09-09T08:19:41.183Z,96217.57
2018-09-09T08:22:15.508Z,96226.94
2018-09-09T08:24:49.957Z,96222.28
2018-09-09T08:27:24.299Z,96228.39
2018-09-09T08:29:58.611Z,96216.27
2018-09-09T08:32:33.156Z,96215.05
2018-09-09T08:35:07.930Z,96216.39
2018-09-09T08:37:42.483Z,96218.74
2018-09-09T08:40:16.944Z,96226.83
2018-09-09T08:42:54.689Z,96217.05
2018-09-09T08:45:29.589Z,96219.13
2018-09-09T08:48:05.123Z,96228.58
2018-09-09T08:50:39.707Z,96224.42
2018-09-09T08:53:14.257Z,96218.24
2018-09-09T08:55:48.958Z,96222.81
2018-09-09T08:58:23.777Z,96222.34
2018-09-09T09:00:58.121Z,96221.41
2018-09-09T09:03:32.559Z,96216.48
2018-09-09T09:06:07.155Z,96221.11
2018-09-09T09:08:41.873Z,96212.16
2018-09-09T09:13:50.400Z,96209.95
2018-09-09T09:16:24.859Z,96213.09
2018-09-09T09:18:59.392Z,96212.27
2018-09-09T09:21:34.573Z,96216.97
2018-09-09T09:24:09.138Z,96213.63
2018-09-09T09:26:44.628Z,96218.69
2018-09-09T09:29:19.279Z,96220.62
2018-09-09T09:31:54.128Z,96219.61
2018-09-09T09:34:28.482Z,96216.00
2018-09-09T09:37:03.316Z,96211.36
2018-09-09T09:39:37.757Z,96212.14
2018-09-09T09:42:12.239Z,96212.59
2018-09-09T09:44:46.764Z,96210.62
2018-09-09T09:47:21.470Z,96203.61
2018-09-09T09:49:55.939Z,96204.62
2018-09-09T09:52:33.625Z,96199.53
2018-09-09T09:55:08.535Z,96201.18
2018-09-09T09:57:43.313Z,96193.59
2018-09-09T10:00:23.515Z,96194.17
2018-09-09T10:02:58.500Z,96192.95
2018-09-09T10:05:33.689Z,96185.78
2018-09-09T10:08:09.468Z,96187.91
2018-09-09T10:10:44.304Z,96189.81
2018-09-09T10:13:18.774Z,96193.77
2018-09-09T10:15:53.183Z,96195.07
2018-09-09T10:18:27.837Z,96188.14
2018-09-09T10:21:05.542Z,96191.11
2018-09-09T10:23:42.474Z,96184.97
2018-09-09T10:26:17.203Z,96189.27
2018-09-09T10:28:51.624Z,96187.16
2018-09-09T10:31:26.317Z,96185.52
2018-09-09T10:34:00.834Z,96181.25
2018-09-09T10:36:35.907Z,96187.91
2018-09-09T10:39:11.579Z,96187.92
2018-09-09T10:41:46.044Z,96177.25
2018-09-09T10:44:20.429Z,96174.33
2018-09-09T10:46:55.217Z,96179.92
2018-09-09T10:49:30.038Z,96177.80
2018-09-09T10:52:04.650Z,96177.23
2018-09-09T10:54:38.904Z,96187.13
2018-09-09T10:57:13.924Z,96178.06
2018-09-09T10:59:49.020Z,96181.80
2018-09-09T11:02:23.532Z,96185.01
2018-09-09T11:04:59.234Z,96185.24
2018-09-09T11:07:34.439Z,96183.41
2018-09-09T11:10:08.838Z,96177.83
2018-09-09T11:12:46.625Z,96182.87
2018-09-09T11:15:25.051Z,96179.95
2018-09-09T11:18:00.501Z,96176.47
2018-09-09T11:20:35.040Z,96168.97
2018-09-09T11:23:13.343Z,96177.50
2018-09-09T11:25:48.213Z,96167.23
2018-09-09T11:28:22.533Z,96163.95
2018-09-09T11:30:57.052Z,96157.98
2018-09-09T11:36:21.608Z,96155.14
2018-09-09T11:38:57.100Z,96158.98
2018-09-09T11:41:35.395Z,96154.59
2018-09-09T11:44:10.400Z,96159.02
2018-09-09T11:46:44.811Z,96160.36
2018-09-09T11:49:25.902Z,96149.72
2018-09-09T11:52:06.246Z,96156.94
2018-09-09T11:54:42.830Z,96149.97
2018-09-09T11:57:18.261Z,96141.36
2018-09-09T12:02:35.412Z,96149.12
2018-09-09T12:05:10.429Z,96143.78
2018-09-09T12:07:45.101Z,96148.86
2018-09-09T12:10:19.983Z,96149.87
2018-09-09T12:12:55.208Z,96147.94
2018-09-09T12:15:30.149Z,96146.72
2018-09-09T12:18:04.793Z,96141.38
2018-09-09T12:20:39.367Z,96143.43
2018-09-09T12:23:13.980Z,96139.02
2018-09-09T12:25:49.027Z,96143.30
2018-09-09T12:28:23.564Z,96149.66
2018-09-09T12:30:57.963Z,96151.33
2018-09-09T12:33:34.638Z,96148.67
2018-09-09T12:36:11.094Z,96148.65
2018-09-09T12:38:51.958Z,96137.91
2018-09-09T12:41:26.828Z,96143.22
2018-09-09T12:46:10.063Z,96151.22
2018-09-09T12:48:49.902Z,96148.81
2018-09-09T12:51:24.871Z,96147.36
2018-09-09T12:53:59.812Z,96145.64
2018-09-09T12:56:35.432Z,96146.43
2018-09-09T12:59:10.416Z,96139.75
2018-09-09T13:01:44.744Z,96145.22
2018-09-09T13:04:19.230Z,96141.80
2018-09-09T13:06:53.829Z,96142.26
2018-09-09T13:09:29.084Z,96146.98
2018-09-09T13:12:03.821Z,96148.58
2018-09-09T13:14:38.247Z,96146.09
2018-09-09T13:17:12.529Z,96146.20
2018-09-09T13:19:46.910Z,96141.09
2018-09-09T13:22:21.353Z,96147.88
2018-09-09T13:24:55.846Z,96144.27
2018-09-09T13:27:30.228Z,96142.77
2018-09-09T13:30:04.645Z,96144.26
2018-09-09T13:32:40.070Z,96141.25
2018-09-09T13:35:14.569Z,96141.50
2018-09-09T13:37:49.189Z,96142.78
2018-09-09T13:40:28.112Z,96139.11
2018-09-09T13:43:03.936Z,96138.60
2018-09-09T13:45:38.700Z,96144.45
2018-09-09T13:48:13.765Z,96142.83
2018-09-09T13:50:49.139Z,96131.27
2018-09-09T13:53:24.546Z,96131.02
2018-09-09T13:55:59.845Z,96129.64
2018-09-09T13:58:34.644Z,96122.33
2018-09-09T14:01:09.309Z,96126.42
2018-09-09T14:03:44.202Z,96114.11
2018-09-09T14:06:18.871Z,96114.70
2018-09-09T14:08:53.461Z,96118.64
2018-09-09T14:11:28.185Z,96120.64
2018-09-09T14:14:03.068Z,96113.78
2018-09-09T14:16:37.583Z,96115.33
2018-09-09T14:19:12.200Z,96109.39
2018-09-09T14:21:47.001Z,96107.83
2018-09-09T14:24:21.520Z,96109.73
2018-09-09T14:26:57.073Z,96108.58
2018-09-09T14:29:31.876Z,96117.06
2018-09-09T14:32:06.475Z,96111.63
2018-09-09T14:34:41.149Z,96120.19
2018-09-09T14:37:16.084Z,96110.18
2018-09-09T14:39:50.653Z,96116.39
2018-09-09T14:42:25.213Z,96121.52
2018-09-09T14:44:59.812Z,96119.38
2018-09-09T14:47:34.672Z,96124.19
2018-09-09T14:50:10.100Z,96120.71
2018-09-09T14:52:44.471Z,96115.07
2018-09-09T14:55:19.040Z,96114.26
2018-09-09T14:57:53.824Z,96107.02
2018-09-09T15:00:29.010Z,96100.88
2018-09-09T15:03:03.456Z,96107.55
2018-09-09T15:05:38.254Z,96108.53
2018-09-09T15:08:12.879Z,96102.38
2018-09-09T15:10:47.476Z,96105.84
2018-09-09T15:13:22.594Z,96106.94
2018-09-09T15:15:57.289Z,96102.67
2018-09-09T15:18:32.640Z,96096.56
2018-09-09T15:21:07.015Z,96100.30
2018-09-09T15:23:41.529Z,96102.41
2018-09-09T15:26:16.372Z,96100.80
2018-09-09T15:28:50.836Z,96097.64
2018-09-09T15:31:25.383Z,96095.30
2018-09-09T15:34:00.472Z,96092.63
2018-09-09T15:36:34.759Z,96094.23
2018-09-09T15:39:09.512Z,96096.16
2018-09-09T15:41:51.543Z,96100.70
2018-09-09T15:44:26.104Z,96097.50
2018-09-09T15:47:03.449Z,96100.72
2018-09-09T15:53:14.580Z,96100.42
2018-09-09T15:55:49.571Z,96100.98
2018-09-09T15:58:24.100Z,96101.53
2018-09-09T16:00:58.941Z,96100.19
2018-09-09T16:03:33.440Z,96101.22
2018-09-09T16:06:08.126Z,96103.33
2018-09-09T16:08:50.163Z,96104.89
2018-09-09T16:11:24.931Z,96101.66
2018-09-09T16:13:59.725Z,96100.02
2018-09-09T16:16:34.445Z,96102.91
2018-09-09T16:19:08.820Z,96101.73
2018-09-09T16:21:43.529Z,96106.19
2018-09-09T16:24:18.115Z,96109.34
2018-09-09T16:26:53.052Z,96109.20
2018-09-09T16:29:27.713Z,96115.43
2018-09-09T16:32:02.394Z,96114.59
2018-09-09T16:34:37.051Z,96116.61
2018-09-09T16:37:11.989Z,96118.61
2018-09-09T16:39:46.728Z,96118.94
2018-09-09T16:42:21.261Z,96119.08
2018-09-09T16:44:56.967Z,96118.98
2018-09-09T16:47:32.735Z,96128.34
2018-09-09T16:50:07.365Z,96128.95
2018-09-09T16:52:42.456Z,96126.63
2018-09-09T16:55:17.253Z,96124.28
2018-09-09T16:57:53.758Z,96126.23
2018-09-09T17:00:28.504Z,96124.48
2018-09-09T17:03:04.618Z,96128.52
2018-09-09T17:05:39.552Z,96125.80
2018-09-09T17:08:14.050Z,96127.42
2018-09-09T17:10:48.711Z,96127.42
2018-09-09T17:13:24.434Z,96129.06
2018-09-09T17:16:03.132Z,96131.60
2018-09-09T17:18:38.156Z,96128.69
2018-09-09T17:21:18.919Z,96126.30
2018-09-09T17:23:53.737Z,96133.28
2018-09-09T17:26:28.166Z,96130.55
2018-09-09T17:29:03.693Z,96119.68
2018-09-09T17:31:38.112Z,96127.69
2018-09-09T17:34:12.561Z,96128.37
2018-09-09T17:36:46.971Z,96125.92
2018-09-09T17:39:21.384Z,96126.92
2018-09-09T17:41:56.440Z,96137.97
2018-09-09T17:44:31.229Z,96137.02
2018-09-09T17:47:06.364Z,96146.03
2018-09-09T17:49:40.663Z,96147.16
2018-09-09T17:52:15.448Z,96148.27
2018-09-09T17:54:49.972Z,96146.97
2018-09-09T17:57:24.251Z,96153.13
2018-09-09T17:59:59.045Z,96155.79
2018-09-09T18:02:33.473Z,96153.40
2018-09-09T18:05:09.088Z,96153.08
2018-09-09T18:07:43.492Z,96153.54
2018-09-09T18:10:18.157Z,96155.09
2018-09-09T18:12:52.589Z,96160.25
2018-09-09T18:15:27.154Z,96162.25
2018-09-09T18:18:02.510Z,96165.46
2018-09-09T18:20:37.323Z,96163.59
2018-09-09T18:23:14.641Z,96163.52
2018-09-09T18:25:50.713Z,96162.19
2018-09-09T18:28:26.271Z,96169.59
2018-09-09T18:31:02.491Z,96175.33
2018-09-09T18:33:37.124Z,96179.43
2018-09-09T18:36:12.016Z,96184.23
2018-09-09T18:38:46.561Z,96187.38
2018-09-09T18:41:21.984Z,96190.34
2018-09-09T18:43:56.588Z,96189.17
2018-09-09T18:46:31.135Z,96189.61
2018-09-09T18:49:06.301Z,96195.14
2018-09-09T18:51:42.613Z,96190.09
2018-09-09T18:54:17.782Z,96192.56
2018-09-09T18:56:52.842Z,96193.44
2018-09-09T18:59:27.846Z,96194.63
2018-09-09T19:02:03.163Z,96192.24
2018-09-09T19:04:37.689Z,96191.28
2018-09-09T19:07:12.256Z,96197.51
2018-09-09T19:09:46.923Z,96199.20
2018-09-09T19:12:21.343Z,96198.84
2018-09-09T19:14:55.796Z,96193.81
2018-09-09T19:17:30.240Z,96194.16
2018-09-09T19:20:07.928Z,96192.27
2018-09-09T19:22:42.424Z,96187.56
2018-09-09T19:25:17.128Z,96188.09
2018-09-09T19:27:51.905Z,96185.80
2018-09-09T19:30:26.353Z,96186.65
2018-09-09T19:33:00.707Z,96190.39
2018-09-09T19:35:35.071Z,96193.56
2018-09-09T19:38:09.500Z,96191.02
2018-09-09T19:40:44.573Z,96200.86
2018-09-09T19:43:19.016Z,96198.61
2018-09-09T19:45:53.728Z,96200.34
2018-09-09T19:48:28.400Z,96204.80
2018-09-09T19:51:03.291Z,96207.25
2018-09-09T19:53:41.773Z,96199.40
2018-09-09T19:56:17.245Z,96200.53
2018-09-09T19:58:52.080Z,96199.94
2018-09-09T20:01:27.057Z,96196.30
2018-09-09T20:04:01.567Z,96193.84
2018-09-09T20:06:36.184Z,96195.88
2018-09-09T20:09:11.709Z,96199.02
2018-09-09T20:11:46.828Z,96202.27
2018-09-09T20:14:21.465Z,96213.34
2018-09-09T20:16:56.001Z,96212.95
2018-09-09T20:19:30.936Z,96211.22
2018-09-09T20:22:08.075Z,96208.02
2018-09-09T20:24:42.397Z,96210.12
2018-09-09T20:27:16.831Z,96207.81
2018-09-09T20:29:51.122Z,96215.80
2018-09-09T20:32:25.502Z,96219.94
2018-09-09T20:34:59.993Z,96206.39
2018-09-09T20:37:34.442Z,96206.30
2018-09-09T20:40:09.460Z,96210.75
2018-09-09T20:42:44.232Z,96215.10
2018-09-09T20:45:18.796Z,96212.65
2018-09-09T20:47:53.333Z,96214.88
2018-09-09T20:50:27.976Z,96217.91
2018-09-09T20:53:02.816Z,96214.27
2018-09-09T20:55:37.245Z,96219.63
2018-09-09T20:58:14.166Z,96220.23
2018-09-09T21:00:48.734Z,96226.59
2018-09-09T21:03:24.062Z,96221.12
2018-09-09T21:05:58.888Z,96221.32
2018-09-09T21:08:38.112Z,96220.21
2018-09-09T21:11:13.118Z,96223.20
2018-09-09T21:13:55.270Z,96221.80
2018-09-09T21:16:30.162Z,96224.92
2018-09-09T21:19:05.085Z,96224.62
2018-09-09T21:21:40.338Z,96222.41
2018-09-09T21:24:15.610Z,96220.38
2018-09-09T21:26:51.452Z,96216.89
2018-09-09T21:29:26.054Z,96211.44
2018-09-09T21:32:00.795Z,96213.45
2018-09-09T21:34:35.569Z,96214.97
2018-09-09T21:37:11.866Z,96222.29
2018-09-09T21:39:46.761Z,96220.67
2018-09-09T21:42:21.176Z,96216.84
2018-09-09T21:44:55.970Z,96214.02
2018-09-09T21:47:30.668Z,96215.31
2018-09-09T21:50:05.434Z,96221.06
2018-09-09T21:52:40.068Z,96216.89
2018-09-09T21:55:14.717Z,96217.00
2018-09-09T21:57:49.138Z,96221.22
2018-09-09T22:00:23.499Z,96214.35
2018-09-09T22:02:58.297Z,96215.16
2018-09-09T22:05:32.687Z,96211.48
2018-09-09T22:08:07.082Z,96218.44
2018-09-09T22:10:41.509Z,96214.39
2018-09-09T22:13:15.932Z,96215.31
2018-09-09T22:15:54.446Z,96223.38
2018-09-09T22:18:29.025Z,96213.98
2018-09-09T22:21:03.863Z,96218.17
2018-09-09T22:23:39.562Z,96218.92
2018-09-09T22:26:16.436Z,96219.67
2018-09-09T22:28:51.575Z,96215.64
2018-09-09T22:31:25.973Z,96224.70
2018-09-09T22:34:00.248Z,96226.01
2018-09-09T22:36:34.677Z,96229.69
2018-09-09T22:39:11.028Z,96222.72
2018-09-09T22:41:45.717Z,96229.38
2018-09-09T22:44:22.232Z,96232.98
2018-09-09T22:46:58.006Z,96232.25
2018-09-09T22:49:32.410Z,96234.73
2018-09-09T22:52:07.794Z,96229.19
2018-09-09T22:54:42.088Z,96236.44
2018-09-09T22:57:19.295Z,96234.73
2018-09-09T22:59:53.777Z,96232.76
2018-09-09T23:02:28.528Z,96231.25
2018-09-09T23:05:03.004Z,96233.67
2018-09-09T23:07:37.807Z,96238.61
2018-09-09T23:10:13.626Z,96243.04
2018-09-09T23:12:48.080Z,96239.41
2018-09-09T23:15:26.398Z,96237.52
2018-09-09T23:18:01.071Z,96232.78
2018-09-09T23:20:35.569Z,96237.02
2018-09-09T23:23:10.435Z,96240.75
2018-09-09T23:25:44.805Z,96238.69
2018-09-09T23:28:19.587Z,96242.12
2018-09-09T23:30:54.324Z,96241.17
2018-09-09T23:33:28.988Z,96241.95
2018-09-09T23:36:03.388Z,96242.84
2018-09-09T23:38:38.449Z,96253.77
2018-09-09T23:41:13.185Z,96246.52
2018-09-09T23:43:47.667Z,96244.79
2018-09-09T23:46:22.388Z,96239.47
2018-09-09T23:48:56.631Z,96238.44
2018-09-09T23:51:31.116Z,96241.44
2018-09-09T23:54:05.775Z,96236.79
2018-09-09T23:56:40.532Z,96236.14
2018-09-09T23:59:15.284Z,96232.55
